Time;durP1;ratioP1;P1;durP2;ratioP2;P2;SDS_P1;SDS_P2;PMS_P1;PMS_P2;Temp;Humidity;BMP_temperature;BMP_pressure;BME280_temperature;BME280_humidity;BME280_pressure;Samples;Min_cycle;Max_cycle;Signal;HPM_P1;HPM_P2
2023/06/07 00:01:27;;;;;;;3.00;2.40;;;;;;;14.56;100.00;101172.09;105856;1253;73782;-44
2023/06/07 00:03:57;;;;;;;9.60;2.40;;;;;;;14.50;100.00;101170.12;105871;1254;63911;-44
2023/06/07 00:06:25;;;;;;;10.30;2.40;;;;;;;14.47;100.00;101170.38;105883;1257;71418;-44
2023/06/07 00:08:53;;;;;;;14.10;2.60;;;;;;;14.39;100.00;101166.90;105859;1255;60530;-44
2023/06/07 00:11:21;;;;;;;6.90;2.60;;;;;;;14.37;100.00;101164.35;105863;1256;60326;-44
2023/06/07 00:13:50;;;;;;;8.90;2.50;;;;;;;14.36;100.00;101164.37;105835;1252;72663;-44
2023/06/07 00:16:18;;;;;;;6.80;3.20;;;;;;;14.32;100.00;101166.38;105869;1257;63886;-44
2023/06/07 00:18:45;;;;;;;4.70;2.50;;;;;;;14.27;100.00;101159.88;105818;1254;71764;-44
2023/06/07 00:21:13;;;;;;;4.30;2.40;;;;;;;14.22;100.00;101158.25;105823;1253;60424;-44
2023/06/07 00:23:41;;;;;;;3.70;2.20;;;;;;;14.17;100.00;101155.96;105845;1254;60366;-44
2023/06/07 00:26:08;;;;;;;5.20;2.80;;;;;;;14.16;100.00;101156.66;105831;1257;73836;-44
2023/06/07 00:28:36;;;;;;;10.80;3.10;;;;;;;14.18;100.00;101166.86;105866;1257;64042;-44
2023/06/07 00:31:04;;;;;;;4.20;2.90;;;;;;;14.21;100.00;101171.30;105822;1255;71416;-44
2023/06/07 00:33:32;;;;;;;5.00;2.40;;;;;;;14.25;100.00;101178.85;105887;1254;60395;-44
2023/06/07 00:36:00;;;;;;;8.10;3.40;;;;;;;14.23;100.00;101179.76;105915;1257;60344;-44
2023/06/07 00:38:28;;;;;;;7.00;3.10;;;;;;;14.25;100.00;101185.98;105864;1254;73860;-44
2023/06/07 00:40:56;;;;;;;9.60;2.80;;;;;;;14.28;100.00;101191.47;105873;1254;65354;-44
2023/06/07 00:43:24;;;;;;;9.80;3.00;;;;;;;14.30;100.00;101194.38;105893;1254;72671;-44
2023/06/07 00:45:52;;;;;;;16.40;2.70;;;;;;;14.27;100.00;101197.39;105699;1254;60488;-43
2023/06/07 00:48:20;;;;;;;8.50;2.80;;;;;;;14.24;100.00;101196.74;105871;1253;60390;-44
2023/06/07 00:50:49;;;;;;;4.30;2.50;;;;;;;14.24;100.00;101199.88;105665;1252;72554;-44
2023/06/07 00:53:17;;;;;;;5.80;2.80;;;;;;;14.21;100.00;101200.80;105926;1253;64155;-44
2023/06/07 00:55:45;;;;;;;5.60;2.70;;;;;;;14.19;100.00;101199.30;105821;1254;71901;-44
2023/06/07 00:58:15;;;;;;;8.30;2.60;;;;;;;14.16;100.00;101203.87;105693;1259;60374;-43
2023/06/07 01:00:43;;;;;;;10.80;3.10;;;;;;;14.15;100.00;101195.58;105677;1255;60510;-43
2023/06/07 01:03:12;;;;;;;8.60;3.00;;;;;;;14.15;100.00;101195.91;105872;1253;72603;-43
2023/06/07 01:05:41;;;;;;;9.90;3.00;;;;;;;14.17;100.00;101191.71;105846;1253;64114;-44
2023/06/07 01:08:11;;;;;;;7.70;2.50;;;;;;;14.18;100.00;101193.25;105729;1259;72628;-43
2023/06/07 01:10:38;;;;;;;6.20;2.80;;;;;;;14.20;100.00;101190.59;105848;1256;60494;-44
2023/06/07 01:13:09;;;;;;;9.40;2.80;;;;;;;14.26;100.00;101179.35;105842;1257;60344;-44
2023/06/07 01:15:37;;;;;;;9.00;3.10;;;;;;;14.29;100.00;101166.28;105673;1257;74534;-43
2023/06/07 01:18:09;;;;;;;5.50;2.60;;;;;;;14.27;100.00;101155.38;105831;1254;63845;-43
2023/06/07 01:20:38;;;;;;;5.40;2.90;;;;;;;14.21;100.00;101143.70;105728;1257;71406;-43
2023/06/07 01:23:07;;;;;;;6.30;3.30;;;;;;;14.16;100.00;101127.00;105857;1254;60530;-43
2023/06/07 01:25:35;;;;;;;11.10;3.20;;;;;;;14.10;100.00;101114.63;105711;1254;60537;-43
2023/06/07 01:28:03;;;;;;;3.40;2.90;;;;;;;14.12;100.00;101111.63;105890;1254;73851;-43
2023/06/07 01:30:32;;;;;;;6.40;2.70;;;;;;;14.12;100.00;101108.34;105709;1254;64535;-43
2023/06/07 01:33:02;;;;;;;6.60;2.70;;;;;;;14.05;100.00;101105.89;105664;1258;72621;-43
2023/06/07 01:35:30;;;;;;;8.60;2.90;;;;;;;14.02;100.00;101104.21;105859;1254;60482;-43
2023/06/07 01:37:58;;;;;;;15.00;3.00;;;;;;;14.00;100.00;101100.43;105896;1254;60501;-45
2023/06/07 01:40:25;;;;;;;10.60;2.50;;;;;;;13.97;100.00;101093.73;105718;1254;73914;-44
2023/06/07 01:42:54;;;;;;;13.40;3.10;;;;;;;13.91;100.00;101084.67;105857;1253;64203;-43
2023/06/07 01:45:22;;;;;;;8.80;3.00;;;;;;;13.85;100.00;101072.14;105874;1257;72619;-44
2023/06/07 01:47:50;;;;;;;5.90;2.80;;;;;;;13.75;100.00;101055.20;105751;1254;60411;-43
2023/06/07 01:50:21;;;;;;;11.60;3.00;;;;;;;13.63;100.00;101036.02;105685;1257;60409;-43
2023/06/07 01:52:49;;;;;;;8.50;3.00;;;;;;;13.53;100.00;101025.68;105904;1257;73612;-43
2023/06/07 01:55:17;;;;;;;7.40;3.10;;;;;;;13.44;100.00;101017.71;105708;1259;64090;-43
2023/06/07 01:58:00;;;;;;;11.50;3.90;;;;;;;13.43;100.00;101017.20;105666;1255;72619;-44
2023/06/07 02:00:31;;;;;;;6.00;2.60;;;;;;;13.50;100.00;101023.83;105666;1257;61592;-44
2023/06/07 02:03:01;;;;;;;8.00;3.10;;;;;;;13.57;100.00;101036.89;105859;1257;60671;-45
2023/06/07 02:05:32;;;;;;;5.10;3.00;;;;;;;13.56;100.00;101035.85;105940;1254;73803;-45
2023/06/07 02:08:08;;;;;;;3.40;2.60;;;;;;;13.52;100.00;101026.73;105906;1254;64202;-44
2023/06/07 02:10:36;;;;;;;;;;;;;;;13.48;100.00;101025.95;105871;1254;72709;-44
2023/06/07 02:13:04;;;;;;;11.30;3.10;;;;;;;13.43;100.00;101024.48;105887;1254;60410;-44
2023/06/07 02:15:31;;;;;;;13.70;3.30;;;;;;;13.40;100.00;101025.23;105890;1257;60348;-45
2023/06/07 02:18:01;;;;;;;6.20;2.90;;;;;;;13.36;100.00;101023.20;105672;1252;72595;-44
2023/06/07 02:20:30;;;;;;;13.90;3.20;;;;;;;13.33;100.00;101008.21;105676;1254;65120;-44
2023/06/07 02:22:58;;;;;;;13.50;3.10;;;;;;;13.28;100.00;100988.56;105719;1252;72627;-41
2023/06/07 02:25:26;;;;;;;6.30;3.10;;;;;;;13.24;100.00;100971.47;105569;1254;60517;-43
2023/06/07 02:27:54;;;;;;;8.80;2.80;;;;;;;13.20;100.00;100948.85;105666;1257;60881;-48
2023/06/07 02:30:21;;;;;;;7.40;2.80;;;;;;;13.17;100.00;100927.60;105818;1254;72659;-46
2023/06/07 02:32:49;;;;;;;9.40;3.00;;;;;;;13.16;100.00;100913.60;105851;1257;64076;-44
2023/06/07 02:35:17;;;;;;;9.70;3.40;;;;;;;13.17;100.00;100907.16;105838;1257;71337;-44
2023/06/07 02:37:45;;;;;;;9.60;3.30;;;;;;;13.19;100.00;100899.14;105831;1257;60530;-44
2023/06/07 02:40:13;;;;;;;5.30;2.90;;;;;;;13.22;100.00;100894.54;105852;1257;60418;-43
2023/06/07 02:42:45;;;;;;;3.40;2.90;;;;;;;13.26;100.00;100888.95;105864;1257;72807;-44
2023/06/07 02:45:14;;;;;;;7.10;2.90;;;;;;;13.29;100.00;100890.42;105899;1257;64105;-43
2023/06/07 02:47:42;;;;;;;4.40;2.70;;;;;;;13.34;100.00;100888.25;105685;1259;72633;-43
2023/06/07 02:50:11;;;;;;;6.70;2.80;;;;;;;13.36;100.00;100880.39;105726;1259;60517;-44
2023/06/07 02:52:39;;;;;;;4.40;2.80;;;;;;;13.38;100.00;100876.70;105824;1254;60341;-44
2023/06/07 02:55:08;;;;;;;9.70;3.10;;;;;;;13.39;100.00;100874.09;105863;1254;73057;-43
2023/06/07 02:57:36;;;;;;;6.60;2.80;;;;;;;13.40;100.00;100875.79;105841;1254;65307;-44
2023/06/07 03:00:08;;;;;;;16.80;3.10;;;;;;;13.44;100.00;100872.61;105867;1253;71436;-43
2023/06/07 03:02:44;;;;;;;7.00;3.20;;;;;;;13.51;100.00;100875.91;105873;1254;60532;-44
2023/06/07 03:05:13;;;;;;;5.20;3.10;;;;;;;13.58;100.00;100873.70;105900;1257;60363;-43
2023/06/07 03:07:40;;;;;;;7.90;2.70;;;;;;;13.63;100.00;100872.15;105875;1252;71800;-44
2023/06/07 03:10:11;;;;;;;13.00;3.20;;;;;;;13.70;100.00;100871.80;105846;1257;64015;-44
2023/06/07 03:12:39;;;;;;;4.70;2.80;;;;;;;13.78;100.00;100873.36;105830;1254;70622;-43
2023/06/07 03:15:10;;;;;;;3.50;2.80;;;;;;;13.88;100.00;100873.81;105822;1254;60405;-45
2023/06/07 03:17:41;;;;;;;10.20;3.10;;;;;;;13.99;100.00;100884.43;105930;1256;60331;-44
2023/06/07 03:20:10;;;;;;;8.20;2.80;;;;;;;14.14;100.00;100897.41;105868;1257;72865;-44
2023/06/07 03:22:38;;;;;;;8.80;3.10;;;;;;;14.29;100.00;100917.17;105733;1259;65160;-43
2023/06/07 03:25:09;;;;;;;9.30;3.10;;;;;;;14.43;100.00;100934.66;105868;1254;71798;-44
2023/06/07 03:27:36;;;;;;;8.10;3.20;;;;;;;14.59;100.00;100952.48;105723;1254;60526;-44
2023/06/07 03:30:14;;;;;;;7.70;2.70;;;;;;;14.76;100.00;100973.06;105666;1259;60418;-43
2023/06/07 03:32:43;;;;;;;5.20;3.00;;;;;;;14.92;100.00;100993.32;105837;1254;73852;-44
2023/06/07 03:35:11;;;;;;;18.50;3.70;;;;;;;15.05;100.00;101016.21;105860;1253;64316;-43
2023/06/07 03:37:40;;;;;;;7.80;3.00;;;;;;;15.22;100.00;101035.58;105812;1254;72325;-44
2023/06/07 03:40:08;;;;;;;6.60;3.00;;;;;;;15.43;100.00;101043.80;105699;1255;60472;-43
2023/06/07 03:42:36;;;;;;;6.30;2.90;;;;;;;15.73;100.00;101048.86;105718;1260;60437;-45
2023/06/07 03:45:05;;;;;;;10.20;2.90;;;;;;;16.06;100.00;101065.80;105939;1255;73817;-45
2023/06/07 03:47:32;;;;;;;4.50;3.00;;;;;;;16.39;100.00;101088.06;105687;1253;64731;-45
2023/06/07 03:50:01;;;;;;;6.20;3.10;;;;;;;16.75;100.00;101110.44;105840;1254;72701;-42
2023/06/07 03:52:30;;;;;;;8.60;2.90;;;;;;;17.07;100.00;101130.10;105865;1254;60479;-42
2023/06/07 03:54:58;;;;;;;8.00;2.90;;;;;;;17.39;100.00;101145.70;105742;1254;61076;-42
2023/06/07 03:57:26;;;;;;;7.00;2.90;;;;;;;17.69;100.00;101171.52;105879;1257;71855;-41
2023/06/07 03:59:56;;;;;;;13.30;3.40;;;;;;;17.93;100.00;101185.48;105671;1260;65216;-42
2023/06/07 04:02:25;;;;;;;12.10;2.80;;;;;;;18.14;100.00;101196.39;105818;1254;72660;-42
2023/06/07 04:04:54;;;;;;;6.40;2.70;;;;;;;18.33;99.10;101205.27;105745;1257;60453;-43
2023/06/07 04:07:22;;;;;;;9.90;3.00;;;;;;;18.49;94.30;101223.55;105709;1254;60536;-43
2023/06/07 04:09:50;;;;;;;7.90;2.90;;;;;;;18.61;83.77;101215.00;105898;1254;72603;-42
2023/06/07 04:12:18;;;;;;;8.20;3.40;;;;;;;18.71;77.38;101209.38;105844;1254;64343;-43
2023/06/07 04:14:46;;;;;;;8.80;3.00;;;;;;;18.86;75.82;101212.26;105871;1254;72728;-42
2023/06/07 04:17:13;;;;;;;8.30;2.60;;;;;;;19.03;68.94;101178.73;105728;1254;60431;-43
2023/06/07 04:19:42;;;;;;;7.70;2.70;;;;;;;19.19;66.91;101187.14;105788;1254;60431;-43
2023/06/07 04:22:18;;;;;;;14.30;2.70;;;;;;;19.29;65.52;101200.00;105775;1252;72678;-43
2023/06/07 04:24:46;;;;;;;14.30;3.10;;;;;;;19.42;65.31;101213.96;105823;1257;64054;-43
2023/06/07 04:27:18;;;;;;;7.90;3.20;;;;;;;19.60;64.80;101215.96;105717;1254;72603;-43
2023/06/07 04:29:48;;;;;;;9.90;2.60;;;;;;;19.86;63.57;101193.30;105847;1253;60524;-43
2023/06/07 04:32:19;;;;;;;3.90;2.60;;;;;;;19.97;61.52;101166.19;105617;1257;330489;-43
2023/06/07 04:35:30;;;;;;;11.90;2.80;;;;;;;20.14;60.57;101164.21;102978;1292;600466;-44
2023/06/07 04:38:01;;;;;;;9.20;2.80;;;;;;;20.30;60.59;101188.46;105137;1264;59282;-44
2023/06/07 04:40:30;;;;;;;6.00;2.80;;;;;;;20.56;60.70;101198.12;105075;1269;59269;-43
2023/06/07 04:43:08;;;;;;;9.50;2.70;;;;;;;20.78;59.61;101169.54;105721;1259;71070;-43
2023/06/07 04:45:36;;;;;;;13.30;2.80;;;;;;;20.96;58.13;101131.42;105750;1257;63909;-43
2023/06/07 04:48:07;;;;;;;24.20;3.50;;;;;;;21.14;57.35;101119.66;105635;1254;201181;-43
2023/06/07 04:50:38;;;;;;;9.40;3.20;;;;;;;21.34;56.85;101116.30;106009;1254;59227;-43
2023/06/07 04:53:10;;;;;;;7.10;2.80;;;;;;;21.52;56.32;101107.63;106027;1254;59269;-43
2023/06/07 04:55:41;;;;;;;10.10;2.80;;;;;;;21.75;56.28;101124.66;106043;1255;70692;-44
2023/06/07 04:58:09;;;;;;;4.80;2.80;;;;;;;22.00;55.26;101082.21;106015;1256;64063;-44
2023/06/07 05:00:39;;;;;;;10.60;2.90;;;;;;;22.20;54.21;101025.40;105997;1250;72618;-43
2023/06/07 05:03:13;;;;;;;5.10;2.20;;;;;;;22.41;53.04;100973.73;106016;1251;60041;-44
2023/06/07 05:05:41;;;;;;;5.80;2.80;;;;;;;22.60;52.40;100960.44;105910;1251;59952;-43
2023/06/07 05:08:09;;;;;;;20.50;3.10;;;;;;;22.83;52.19;100965.91;105851;1250;73077;-44
2023/06/07 05:10:37;;;;;;;15.90;3.10;;;;;;;23.00;50.98;100882.14;105850;1250;63923;-44
2023/06/07 05:13:04;;;;;;;7.90;2.50;;;;;;;22.95;49.69;100807.32;105860;1258;72631;-43
2023/06/07 05:15:33;;;;;;;18.00;2.90;;;;;;;22.83;50.39;100912.56;105976;1251;59606;-43
2023/06/07 05:18:02;;;;;;;3.80;2.80;;;;;;;22.93;51.01;100987.94;105948;1257;60020;-44
2023/06/07 05:20:31;;;;;;;5.90;2.80;;;;;;;23.11;50.90;100991.42;105805;1255;72165;-44
2023/06/07 05:23:00;;;;;;;9.50;2.40;;;;;;;23.29;49.47;100863.25;105972;1257;64077;-45
2023/06/07 05:25:27;;;;;;;5.00;2.20;;;;;;;23.31;49.73;100903.08;105997;1257;72694;-44
2023/06/07 05:27:55;;;;;;;10.10;2.40;;;;;;;23.48;50.08;100964.64;105846;1260;60074;-44
2023/06/07 05:30:41;;;;;;;;;;;;;;;23.85;49.38;100896.02;106113;1252;59952;-44
2023/06/07 05:33:09;;;;;;;17.20;2.70;;;;;;;24.00;48.75;100831.73;105994;1250;71828;-43
2023/06/07 05:35:37;;;;;;;12.90;2.80;;;;;;;23.98;48.42;100832.73;106024;1251;64092;-44
2023/06/07 05:38:05;;;;;;;5.30;2.40;;;;;;;24.08;48.45;100857.98;105925;1255;71373;-44
2023/06/07 05:40:33;;;;;;;14.20;2.60;;;;;;;24.20;48.22;100824.77;105988;1252;59695;-44
2023/06/07 05:43:00;;;;;;;24.10;2.80;;;;;;;24.37;47.95;100814.22;105963;1257;59531;-43
2023/06/07 05:45:28;;;;;;;11.80;2.70;;;;;;;24.50;48.70;100894.23;105946;1252;71809;-44
2023/06/07 05:47:56;;;;;;;11.60;2.70;;;;;;;24.79;48.09;100848.61;105964;1252;64037;-44
2023/06/07 05:50:24;;;;;;;18.60;2.50;;;;;;;24.86;46.58;100680.55;105820;1258;71404;-44
2023/06/07 05:52:56;;;;;;;9.00;2.80;;;;;;;24.73;45.39;100545.96;105997;1251;60054;-43
2023/06/07 05:55:27;;;;;;;12.10;2.20;;;;;;;24.57;46.32;100676.23;106043;1256;59531;-43
2023/06/07 05:57:57;;;;;;;9.60;2.50;;;;;;;24.61;45.99;100658.19;105979;1251;72926;-43
2023/06/07 06:00:25;;;;;;;10.30;2.60;;;;;;;24.63;46.37;100707.92;105992;1256;65301;-43
2023/06/07 06:02:53;;;;;;;14.80;2.70;;;;;;;24.81;46.19;100732.36;105971;1254;71496;-44
2023/06/07 06:05:27;;;;;;;5.30;2.50;;;;;;;25.06;46.10;100685.16;105959;1253;59739;-44
2023/06/07 06:07:56;;;;;;;13.40;2.70;;;;;;;25.23;45.64;100653.16;106039;1255;59584;-43
2023/06/07 06:10:25;;;;;;;8.50;2.30;;;;;;;25.29;45.73;100688.90;105979;1252;71929;-43
2023/06/07 06:12:52;;;;;;;13.10;2.30;;;;;;;25.24;45.95;100715.61;106026;1252;64342;-44
2023/06/07 06:15:20;;;;;;;7.20;2.20;;;;;;;25.27;45.43;100688.67;105976;1257;71395;-43
2023/06/07 06:17:54;;;;;;;6.70;2.00;;;;;;;25.44;45.03;100625.08;105942;1257;60106;-44
2023/06/07 06:20:22;;;;;;;13.60;2.50;;;;;;;25.53;44.54;100571.41;105992;1256;59617;-43
2023/06/07 06:22:50;;;;;;;8.40;2.70;;;;;;;25.47;44.37;100551.56;105979;1252;71815;-43
2023/06/07 06:25:17;;;;;;;12.90;2.90;;;;;;;25.26;44.10;100555.67;105915;1252;64081;-44
2023/06/07 06:27:45;;;;;;;6.80;2.50;;;;;;;25.03;45.02;100665.69;105935;1257;70524;-44
2023/06/07 06:30:13;;;;;;;10.90;2.30;;;;;;;24.97;46.27;100838.54;105977;1256;59646;-44
2023/06/07 06:32:40;;;;;;;4.10;2.30;;;;;;;25.04;46.29;100895.05;105928;1252;59960;-43
2023/06/07 06:35:08;;;;;;;5.00;2.10;;;;;;;25.15;45.75;100793.21;105906;1251;71790;-43
2023/06/07 06:37:36;;;;;;;14.60;2.00;;;;;;;25.31;46.34;100850.64;105980;1251;65288;-43
2023/06/07 06:40:05;;;;;;;24.70;3.10;;;;;;;25.51;46.53;100887.23;105979;1254;72758;-43
2023/06/07 06:42:33;;;;;;;12.10;2.50;;;;;;;25.61;44.37;100631.92;106004;1257;59665;-44
2023/06/07 06:45:27;;;;;;;7.90;2.30;;;;;;;25.50;45.72;100788.88;105927;1257;60072;-43
2023/06/07 06:47:58;;;;;;;20.20;2.60;;;;;;;25.59;45.73;100801.83;105955;1250;72184;-43
2023/06/07 06:50:26;;;;;;;8.20;2.40;;;;;;;25.73;45.39;100790.50;106006;1255;65106;-43
2023/06/07 06:52:56;;;;;;;12.30;3.00;;;;;;;25.78;45.32;100757.78;105954;1254;71877;-43
2023/06/07 06:55:24;;;;;;;6.80;2.30;;;;;;;25.76;44.77;100695.23;105925;1256;60010;-43
2023/06/07 06:57:52;;;;;;;9.40;2.50;;;;;;;25.76;44.89;100730.70;105951;1252;59563;-43
2023/06/07 07:00:20;;;;;;;7.70;2.30;;;;;;;25.69;45.63;100830.71;105920;1251;71920;-43
2023/06/07 07:02:48;;;;;;;12.10;2.40;;;;;;;25.66;45.51;100819.30;106007;1251;65274;-43
2023/06/07 07:05:16;;;;;;;11.30;2.50;;;;;;;25.78;45.16;100777.77;105978;1257;71813;-44
2023/06/07 07:07:43;;;;;;;3.70;2.00;;;;;;;26.01;45.11;100754.60;105927;1254;59743;-43
2023/06/07 07:10:12;;;;;;;10.00;2.60;;;;;;;26.25;44.39;100653.16;105991;1257;59632;-43
2023/06/07 07:12:41;;;;;;;3.80;2.20;;;;;;;26.29;43.30;100493.85;105905;1257;72262;-44
2023/06/07 07:15:09;;;;;;;4.30;2.50;;;;;;;26.30;44.69;100686.67;105952;1256;65274;-43
2023/06/07 07:17:46;;;;;;;13.10;2.20;;;;;;;26.48;44.70;100717.10;105979;1252;72619;-43
2023/06/07 07:20:15;;;;;;;14.50;2.60;;;;;;;26.72;44.02;100618.14;106003;1251;59663;-44
2023/06/07 07:22:45;;;;;;;14.40;2.60;;;;;;;26.98;44.02;100610.84;106015;1256;60352;-44
2023/06/07 07:25:13;;;;;;;8.40;2.10;;;;;;;27.19;42.68;100444.23;105959;1257;73010;-43
2023/06/07 07:27:40;;;;;;;4.60;1.90;;;;;;;27.28;42.16;100353.21;106053;1252;64210;-43
2023/06/07 07:30:10;;;;;;;23.20;2.70;;;;;;;27.41;41.84;100324.66;105918;1251;72662;-44
2023/06/07 07:32:38;;;;;;;12.80;2.70;;;;;;;27.63;42.12;100369.45;105986;1250;60065;-44
2023/06/07 07:35:07;;;;;;;10.20;1.90;;;;;;;27.77;39.29;99984.61;105942;1256;59709;-43
2023/06/07 07:37:35;;;;;;;10.50;1.70;;;;;;;27.57;37.89;99748.86;105968;1251;71728;-43
2023/06/07 07:40:05;;;;;;;7.50;2.00;;;;;;;27.43;38.94;99892.24;105975;1251;65321;-44
2023/06/07 07:42:33;;;;;;;8.60;1.70;;;;;;;27.70;38.50;99886.28;105946;1257;71067;-44
2023/06/07 07:45:01;;;;;;;6.40;1.90;;;;;;;27.95;38.60;99890.46;105948;1257;59618;-44
2023/06/07 07:47:28;;;;;;;7.10;2.10;;;;;;;28.18;37.98;99797.27;105905;1257;59557;-44
2023/06/07 07:49:56;;;;;;;5.30;1.80;;;;;;;28.39;38.34;99847.02;105920;1251;71723;-43
2023/06/07 07:52:25;;;;;;;4.70;1.50;;;;;;;28.56;38.36;99844.83;105988;1252;64084;-44
2023/06/07 07:54:54;;;;;;;6.60;1.70;;;;;;;28.74;37.46;99759.50;105972;1254;71487;-44
2023/06/07 07:57:22;;;;;;;7.80;2.30;;;;;;;28.84;35.98;99525.42;106028;1251;59659;-45
2023/06/07 07:59:49;;;;;;;3.30;1.60;;;;;;;28.62;34.97;99377.30;105925;1257;59529;-49
2023/06/07 08:02:17;;;;;;;6.90;1.60;;;;;;;28.56;34.27;99253.22;105917;1257;71756;-44
2023/06/07 08:04:45;;;;;;;4.60;1.70;;;;;;;28.65;34.50;99285.45;106017;1251;63867;-49
2023/06/07 08:07:16;;;;;;;5.20;1.10;;;;;;;28.63;33.16;99074.84;105961;1256;71371;-46
2023/06/07 08:09:44;;;;;;;7.30;1.30;;;;;;;28.74;32.90;99056.42;105704;1257;59688;-44
2023/06/07 08:12:11;;;;;;;12.60;1.80;;;;;;;28.74;32.23;98907.70;105815;1257;60039;-44
2023/06/07 08:14:39;;;;;;;6.60;1.60;;;;;;;28.77;32.48;98934.98;105910;1251;71814;-47
2023/06/07 08:17:06;;;;;;;17.10;2.00;;;;;;;28.88;33.14;99041.71;105950;1256;65321;-44
2023/06/07 08:19:34;;;;;;;37.90;2.60;;;;;;;28.91;32.97;99032.06;105928;1255;71381;-44
2023/06/07 08:22:02;;;;;;;2.90;1.30;;;;;;;28.96;32.15;98915.45;105993;1256;59630;-44
2023/06/07 08:24:30;;;;;;;2.50;1.20;;;;;;;28.97;32.43;98937.36;106056;1257;60439;-43
2023/06/07 08:26:58;;;;;;;8.60;1.30;;;;;;;28.94;33.35;99067.91;105973;1252;71785;-43
2023/06/07 08:29:25;;;;;;;7.70;1.60;;;;;;;29.04;33.32;99125.77;105940;1250;63900;-44
2023/06/07 08:31:53;;;;;;;12.50;1.70;;;;;;;29.11;32.28;98945.56;105921;1257;72604;-44
2023/06/07 08:34:27;;;;;;;3.70;1.50;;;;;;;29.05;31.50;98885.31;105964;1250;59895;-44
2023/06/07 08:36:58;;;;;;;2.50;1.30;;;;;;;28.90;30.07;98613.76;105893;1256;62417;-44
2023/06/07 08:39:25;;;;;;;1.50;1.40;;;;;;;29.07;30.42;98624.56;105957;1257;72574;-44
2023/06/07 08:41:53;;;;;;;28.30;2.10;;;;;;;29.39;30.13;98601.77;105914;1257;66111;-44
2023/06/07 08:44:21;;;;;;;3.90;1.50;;;;;;;29.52;29.29;98488.08;105910;1251;73902;-44
2023/06/07 08:46:49;;;;;;;4.80;1.30;;;;;;;29.73;27.68;98146.16;105932;1257;60513;-44
2023/06/07 08:49:16;;;;;;;6.70;1.50;;;;;;;29.95;27.03;97984.23;105757;1252;60834;-45
2023/06/07 08:51:44;;;;;;;2.50;1.40;;;;;;;29.90;27.45;98014.19;105944;1260;74174;-43
2023/06/07 08:54:13;;;;;;;2.00;1.60;;;;;;;29.79;27.13;97934.57;105946;1253;63932;-44
2023/06/07 08:56:41;;;;;;;1.60;1.50;;;;;;;29.68;27.36;97994.70;105962;1256;72604;-44
2023/06/07 08:59:09;;;;;;;3.30;1.30;;;;;;;29.77;28.34;98123.24;105961;1256;60771;-44
2023/06/07 09:01:37;;;;;;;7.90;1.60;;;;;;;29.91;28.12;98136.02;105921;1252;60443;-44
2023/06/07 09:04:06;;;;;;;4.40;1.50;;;;;;;29.94;29.40;98279.30;105976;1257;72654;-44
2023/06/07 09:06:35;;;;;;;3.90;1.60;;;;;;;30.13;30.18;98471.10;105954;1251;63875;-44
2023/06/07 09:09:04;;;;;;;23.70;2.00;;;;;;;30.35;27.66;98184.38;105928;1252;72671;-44
2023/06/07 09:11:32;;;;;;;8.60;1.80;;;;;;;30.25;27.99;98134.08;105974;1252;60390;-44
2023/06/07 09:14:00;;;;;;;6.60;2.00;;;;;;;30.44;28.30;98215.83;105959;1255;60325;-44
2023/06/07 09:16:28;;;;;;;11.90;2.00;;;;;;;30.50;27.82;98130.20;105978;1252;72548;-44
2023/06/07 09:18:56;;;;;;;13.10;2.60;;;;;;;30.33;27.73;98113.80;105993;1257;63868;-45
2023/06/07 09:21:28;;;;;;;3.60;2.10;;;;;;;30.15;27.44;98069.66;105930;1256;72780;-44
2023/06/07 09:23:59;;;;;;;4.10;2.00;;;;;;;29.99;26.63;97956.89;105924;1253;60505;-44
2023/06/07 09:26:38;;;;;;;4.60;1.90;;;;;;;29.93;26.13;97880.55;105975;1256;60491;-45
2023/06/07 09:29:07;;;;;;;6.60;2.20;;;;;;;29.77;26.38;97853.60;105968;1252;73631;-44
2023/06/07 09:31:37;;;;;;;2.80;2.30;;;;;;;29.78;28.04;98105.48;105759;1252;64105;-44
2023/06/07 09:34:28;;;;;;;17.20;3.20;;;;;;;30.07;28.69;98227.48;105988;1256;71386;-45
2023/06/07 09:36:57;;;;;;;10.20;2.60;;;;;;;30.52;29.16;98343.91;106022;1257;60527;-44
2023/06/07 09:39:28;;;;;;;25.60;2.80;;;;;;;30.85;28.22;98246.94;105957;1251;60480;-45
2023/06/07 09:41:56;;;;;;;5.40;2.90;;;;;;;30.98;29.05;98334.86;106014;1257;73861;-45
2023/06/07 09:44:28;;;;;;;2.60;2.40;;;;;;;31.21;28.00;98225.73;106007;1251;64224;-45
2023/06/07 09:46:56;;;;;;;7.30;2.60;;;;;;;31.20;26.84;98050.26;105937;1257;71375;-45
2023/06/07 09:49:26;;;;;;;3.20;2.40;;;;;;;31.07;26.44;97971.70;105926;1257;60350;-44
2023/06/07 09:51:54;;;;;;;6.30;2.70;;;;;;;30.73;27.62;98095.67;105960;1257;60388;-44
2023/06/07 09:54:38;;;;;;;8.30;2.80;;;;;;;30.57;28.01;98175.45;105967;1251;73801;-44
2023/06/07 09:57:11;;;;;;;4.90;2.70;;;;;;;30.47;27.95;98208.91;106001;1257;65597;-44
2023/06/07 09:59:39;;;;;;;2.60;2.10;;;;;;;30.50;27.63;98200.77;106019;1256;72715;-44
2023/06/07 10:02:26;;;;;;;3.50;2.30;;;;;;;30.57;28.00;98200.17;105727;1257;60411;-44
2023/06/07 10:04:56;;;;;;;7.20;2.50;;;;;;;30.77;28.44;98301.64;105993;1256;60325;-44
2023/06/07 10:07:32;;;;;;;5.60;2.50;;;;;;;31.02;27.46;98212.69;105972;1258;72577;-44
2023/06/07 10:10:00;;;;;;;8.20;2.50;;;;;;;30.94;27.65;98154.38;105942;1256;63962;-44
2023/06/07 10:12:30;;;;;;;12.70;2.50;;;;;;;30.99;26.89;98093.48;105942;1257;71365;-44
2023/06/07 10:15:02;;;;;;;88.20;5.90;;;;;;;30.89;27.37;98103.64;105953;1252;60412;-43
2023/06/07 10:18:00;;;;;;;5.20;2.60;;;;;;;30.75;27.35;98155.79;105997;1256;60398;-44
2023/06/07 10:20:30;;;;;;;7.20;2.70;;;;;;;30.76;28.41;98263.41;105994;1266;73881;-44
2023/06/07 10:23:06;;;;;;;8.40;2.30;;;;;;;31.05;27.78;98202.89;105912;1256;64028;-43
2023/06/07 10:25:39;;;;;;;6.70;2.10;;;;;;;31.15;27.04;98107.77;105892;1251;71433;-44
2023/06/07 10:28:21;;;;;;;134.20;9.20;;;;;;;31.19;27.73;98187.52;105964;1257;60545;-44
2023/06/07 10:30:53;;;;;;;89.40;5.80;;;;;;;31.02;26.96;98074.52;105941;1259;60420;-44
2023/06/07 10:33:23;;;;;;;29.90;2.80;;;;;;;30.75;28.09;98243.00;105959;1257;73906;-44
2023/06/07 10:35:51;;;;;;;23.10;3.10;;;;;;;30.89;28.34;98281.09;106018;1256;64056;-43
2023/06/07 10:38:18;;;;;;;8.20;2.10;;;;;;;31.01;26.82;98137.73;105888;1256;72537;-44
2023/06/07 10:40:46;;;;;;;9.90;2.10;;;;;;;30.81;27.19;98093.84;105964;1257;60455;-44
2023/06/07 10:43:14;;;;;;;14.00;3.70;;;;;;;30.77;27.47;98178.23;105895;1251;60341;-44
2023/06/07 10:45:41;;;;;;;15.00;3.20;;;;;;;30.79;27.06;98089.83;105938;1256;72407;-46
2023/06/07 10:48:37;;;;;;;3.70;2.60;;;;;;;30.86;27.20;98149.30;105611;1250;64384;-44
2023/06/07 10:51:05;;;;;;;3.00;2.40;;;;;;;30.77;26.58;98057.50;105826;1257;72741;-46
2023/06/07 10:53:56;;;;;;;33.20;3.40;;;;;;;30.94;27.17;98109.36;105990;1253;60404;-44
2023/06/07 10:56:31;;;;;;;7.50;2.70;;;;;;;31.37;28.13;98270.91;105929;1256;60524;-44
2023/06/07 10:59:25;;;;;;;10.20;2.60;;;;;;;31.47;26.11;98003.65;105980;1256;73962;-43
2023/06/07 11:01:54;;;;;;;41.40;4.20;;;;;;;31.09;27.20;98089.59;105922;1251;65146;-44
2023/06/07 11:04:35;;;;;;;7.30;2.50;;;;;;;30.92;28.96;98357.84;105876;1257;72320;-44
2023/06/07 11:07:20;;;;;;;7.20;2.90;;;;;;;30.97;28.35;98315.44;105907;1256;60440;-44
2023/06/07 11:09:49;;;;;;;;;;;;;;;31.05;28.18;98310.25;105979;1251;60488;-43
2023/06/07 11:12:35;;;;;;;4.20;3.10;;;;;;;31.25;27.05;98174.04;105975;1251;72520;-46
2023/06/07 11:15:20;;;;;;;38.70;4.40;;;;;;;31.39;25.74;97991.67;105981;1257;63915;-44
2023/06/07 11:17:56;;;;;;;49.60;5.60;;;;;;;31.44;26.62;98052.08;105971;1252;71409;-45
2023/06/07 11:20:36;;;;;;;34.80;4.30;;;;;;;31.34;26.30;98019.52;105997;1256;60414;-45
2023/06/07 11:23:21;;;;;;;10.30;3.90;;;;;;;31.02;26.75;98049.85;106005;1253;60450;-45
2023/06/07 11:26:08;;;;;;;11.00;3.90;;;;;;;30.98;26.60;98073.17;105962;1252;72553;-44
2023/06/07 11:28:38;;;;;;;11.80;3.90;;;;;;;30.97;27.20;98111.05;105925;1252;63889;-43